Time;durP1;ratioP1;P1;durP2;ratioP2;P2;SDS_P1;SDS_P2;PMS_P1;PMS_P2;Temp;Humidity;BMP_temperature;BMP_pressure;BME280_temperature;BME280_humidity;BME280_pressure;Samples;Min_cycle;Max_cycle;Signal;HPM_P1;HPM_P2
2022/08/25 00:00:09;;;;;;;30.50;18.70;;;;;;;20.10;99.03;97513.47;10370069;28;20072;-57
2022/08/25 00:05:08;;;;;;;35.95;19.85;;;;;;;20.12;98.96;97515.09;10368925;28;20065;-57
2022/08/25 00:10:08;;;;;;;31.90;19.35;;;;;;;20.12;98.82;97512.47;10369000;28;20494;-57
2022/08/25 00:15:08;;;;;;;29.70;19.73;;;;;;;20.14;99.13;97515.03;10369549;28;20076;-57
2022/08/25 00:20:08;;;;;;;28.77;19.20;;;;;;;20.00;99.71;97520.88;10370034;28;20530;-57
2022/08/25 00:25:08;;;;;;;28.00;19.35;;;;;;;19.96;99.90;97504.38;10368858;28;20087;-57
2022/08/25 00:30:09;;;;;;;35.33;20.58;;;;;;;19.98;99.97;97512.22;10368972;28;20088;-57
2022/08/25 00:35:08;;;;;;;29.73;20.77;;;;;;;20.01;100.00;97504.16;10369546;28;20405;-57
2022/08/25 00:40:08;;;;;;;32.95;20.92;;;;;;;20.00;100.00;97491.91;10367903;28;20079;-57
2022/08/25 00:45:08;;;;;;;36.72;21.25;;;;;;;19.93;100.00;97479.91;10368015;28;20107;-57
2022/08/25 00:50:09;;;;;;;34.70;21.35;;;;;;;19.93;100.00;97486.06;10368195;28;20077;-57
2022/08/25 00:55:18;;;;;;;36.28;21.70;;;;;;;19.90;100.00;97495.88;10376718;28;20087;-57
2022/08/25 01:00:23;;;;;;;36.40;20.75;;;;;;;19.80;100.00;97487.50;10375685;28;20470;-57
2022/08/25 01:05:23;;;;;;;31.60;21.20;;;;;;;19.78;100.00;97482.28;10375473;28;20080;-57
2022/08/25 01:10:24;;;;;;;31.95;22.08;;;;;;;19.70;100.00;97470.38;10375415;28;20469;-57
2022/08/25 01:15:23;;;;;;;37.22;21.83;;;;;;;19.74;100.00;97485.97;10375215;28;20064;-57
2022/08/25 01:20:26;;;;;;;29.60;20.92;;;;;;;19.76;100.00;97486.75;10374549;28;20067;-57
2022/08/25 01:25:55;;;;;;;34.22;20.35;;;;;;;19.79;100.00;97483.16;10374811;28;20544;-57
2022/08/25 01:30:55;;;;;;;30.70;21.13;;;;;;;19.82;100.00;97489.16;10374346;28;20577;-57
2022/08/25 01:35:54;;;;;;;34.35;20.95;;;;;;;19.85;100.00;97489.00;10373468;28;20443;-58
2022/08/25 01:40:52;;;;;;;31.02;19.52;;;;;;;19.89;100.00;97475.72;10374681;28;20494;-58
2022/08/25 01:45:51;;;;;;;30.55;20.65;;;;;;;19.91;100.00;97466.84;10373208;28;20059;-59
2022/08/25 01:50:50;;;;;;;28.95;19.92;;;;;;;19.92;100.00;97478.22;10373404;28;20076;-59
2022/08/25 01:56:00;;;;;;;32.58;21.75;;;;;;;19.91;100.00;97468.59;10373386;28;20029;-59
2022/08/25 02:01:05;;;;;;;35.45;21.75;;;;;;;19.87;100.00;97466.09;10373446;28;20060;-58
2022/08/25 02:06:05;;;;;;;31.90;21.45;;;;;;;19.84;100.00;97460.97;10372647;28;20531;-58
2022/08/25 02:11:04;;;;;;;32.28;20.90;;;;;;;19.80;100.00;97448.84;10373776;28;20064;-58
2022/08/25 02:16:03;;;;;;;37.00;22.08;;;;;;;19.72;100.00;97453.63;10372772;28;20072;-58
2022/08/25 02:21:02;;;;;;;30.33;20.83;;;;;;;19.66;100.00;97457.34;10372565;28;20068;-58
2022/08/25 02:26:02;;;;;;;31.73;22.08;;;;;;;19.51;100.00;97446.56;10372349;28;20088;-59
2022/08/25 02:31:03;;;;;;;37.47;21.50;;;;;;;19.45;100.00;97443.28;10371687;28;20099;-58
2022/08/25 02:36:02;;;;;;;37.80;21.98;;;;;;;19.40;100.00;97440.00;10372212;28;20369;-58
2022/08/25 02:41:11;;;;;;;35.42;23.40;;;;;;;19.29;100.00;97431.69;10371600;28;20060;-58
2022/08/25 02:46:11;;;;;;;40.75;23.75;;;;;;;19.23;100.00;97443.31;10371100;28;20080;-58
2022/08/25 02:51:11;;;;;;;35.80;22.65;;;;;;;19.13;100.00;97441.97;10370899;28;20064;-58
2022/08/25 02:56:12;;;;;;;39.85;22.98;;;;;;;19.14;100.00;97446.31;10371035;28;20069;-58
2022/08/25 03:01:11;;;;;;;40.53;22.92;;;;;;;19.03;100.00;97452.00;10370209;28;20087;-59
2022/08/25 03:06:13;;;;;;;39.72;23.17;;;;;;;18.91;100.00;97436.72;10370123;28;20079;-58
2022/08/25 03:11:12;;;;;;;41.38;23.35;;;;;;;18.86;100.00;97436.06;10370516;28;20075;-58
2022/08/25 03:16:11;;;;;;;39.35;23.42;;;;;;;18.85;100.00;97438.72;10369990;28;20075;-58
2022/08/25 03:21:12;;;;;;;37.85;23.92;;;;;;;18.86;100.00;97438.69;10371011;28;20072;-58
2022/08/25 03:31:28;;;;;;;40.35;25.63;;;;;;;18.85;100.00;97436.94;10370519;28;20072;-59
2022/08/25 03:36:28;;;;;;;46.20;24.98;;;;;;;18.84;100.00;97442.28;10369734;28;20033;-59
2022/08/25 03:41:29;;;;;;;41.78;24.65;;;;;;;18.84;100.00;97437.88;10368974;28;20084;-59
2022/08/25 03:46:36;;;;;;;48.92;25.58;;;;;;;18.85;100.00;97430.84;10369441;28;20083;-59
2022/08/25 03:51:39;;;;;;;39.25;25.38;;;;;;;18.80;100.00;97433.66;10369058;28;20064;-59
2022/08/25 03:56:38;;;;;;;46.65;26.13;;;;;;;18.76;100.00;97439.94;10369246;28;20497;-59
2022/08/25 04:01:40;;;;;;;45.80;27.85;;;;;;;18.75;100.00;97446.13;10369695;28;20060;-59
2022/08/25 04:06:41;;;;;;;46.65;27.77;;;;;;;18.75;100.00;97439.09;10368243;28;20105;-56
2022/08/25 04:11:41;;;;;;;50.42;27.63;;;;;;;18.80;100.00;97434.50;10365900;28;20072;-57
2022/08/25 04:16:40;;;;;;;47.17;27.30;;;;;;;18.86;100.00;97427.31;10287995;28;20066;-56
2022/08/25 04:21:40;;;;;;;46.10;27.27;;;;;;;18.95;100.00;97427.78;10286610;28;20038;-56
2022/08/25 04:26:45;;;;;;;51.80;28.42;;;;;;;19.01;100.00;97430.16;10294220;28;20120;-57
2022/08/25 04:31:48;;;;;;;49.97;27.92;;;;;;;19.11;100.00;97428.03;10304113;28;20467;-57
2022/08/25 04:36:49;;;;;;;56.90;29.00;;;;;;;19.20;100.00;97432.91;10294536;28;20503;-57
2022/08/25 04:41:50;;;;;;;49.83;27.98;;;;;;;19.33;100.00;97459.56;10295326;28;20069;-58
2022/08/25 04:46:49;;;;;;;52.45;28.98;;;;;;;19.40;100.00;97461.03;10293916;28;20096;-57
2022/08/25 04:51:48;;;;;;;57.50;28.95;;;;;;;19.53;100.00;97450.00;10296808;28;20038;-57
2022/08/25 04:56:49;;;;;;;53.85;29.92;;;;;;;19.62;100.00;97452.28;10292016;28;20022;-58
2022/08/25 05:01:49;;;;;;;57.55;30.92;;;;;;;19.67;100.00;97452.94;10293197;28;20471;-57
2022/08/25 05:06:49;;;;;;;50.45;28.63;;;;;;;19.80;100.00;97448.00;10293535;28;20073;-59
2022/08/25 05:11:48;;;;;;;54.35;30.17;;;;;;;19.99;100.00;97458.59;10284326;28;20148;-57
2022/08/25 05:16:48;;;;;;;46.10;29.17;;;;;;;20.17;100.00;97454.31;10292488;28;20036;-58
2022/08/25 05:21:47;;;;;;;48.90;28.05;;;;;;;20.29;100.00;97451.97;10293997;28;20077;-58
2022/08/25 05:26:46;;;;;;;41.17;25.73;;;;;;;20.44;100.00;97444.31;10292225;28;20474;-57
2022/08/25 05:31:45;;;;;;;41.90;25.67;;;;;;;20.54;100.00;97440.34;10292107;28;20352;-57
2022/08/25 05:36:44;;;;;;;58.67;26.88;;;;;;;20.64;100.00;97433.72;10291954;28;20328;-58
2022/08/25 05:41:43;;;;;;;35.88;22.88;;;;;;;20.75;100.00;97438.50;10291725;28;20787;-57
2022/08/25 05:46:42;;;;;;;39.72;21.25;;;;;;;20.90;99.72;97444.81;10287483;28;20073;-57
2022/08/25 05:51:41;;;;;;;35.78;21.13;;;;;;;21.04;99.27;97446.81;10320008;28;20079;-57
2022/08/25 05:56:40;;;;;;;31.30;17.70;;;;;;;20.66;98.53;97444.22;10328640;28;20602;-57
2022/08/25 06:06:56;;;;;;;29.55;18.00;;;;;;;20.90;98.52;97448.31;10287033;28;20069;-57
2022/08/25 06:11:55;;;;;;;30.48;17.30;;;;;;;21.18;98.22;97443.50;10290891;28;20042;-58
2022/08/25 06:16:54;;;;;;;25.67;14.45;;;;;;;21.45;97.48;97441.28;10286229;28;20121;-58
2022/08/25 06:21:55;;;;;;;24.00;14.43;;;;;;;21.67;96.52;97435.81;10300824;28;20072;-58
2022/08/25 06:26:55;;;;;;;28.98;15.80;;;;;;;21.94;94.09;97442.31;10292544;28;20073;-57
2022/08/25 06:31:54;;;;;;;27.52;13.98;;;;;;;21.98;92.59;97437.72;10320086;28;20065;-57
2022/08/25 06:36:53;;;;;;;22.45;13.27;;;;;;;22.17;92.15;97432.34;10315466;28;20509;-58
2022/08/25 06:41:55;;;;;;;25.52;13.63;;;;;;;22.39;91.44;97448.78;10292068;28;20033;-58
2022/08/25 06:46:54;;;;;;;25.90;12.52;;;;;;;22.55;90.57;97447.94;10287466;28;20085;-58
2022/08/25 06:51:53;;;;;;;23.70;14.32;;;;;;;22.70;88.87;97451.56;10289619;28;20076;-59
2022/08/25 06:56:52;;;;;;;31.60;13.90;;;;;;;22.84;88.28;97448.19;10290870;28;20106;-58
2022/08/25 07:01:51;;;;;;;24.65;9.77;;;;;;;22.81;83.89;97441.25;10291259;28;20045;-58
2022/08/25 07:06:50;;;;;;;23.42;11.88;;;;;;;22.82;84.33;97416.50;10290806;28;20583;-58
2022/08/25 07:11:49;;;;;;;26.35;12.25;;;;;;;23.25;84.92;97447.63;10291512;28;20080;-58
2022/08/25 07:16:48;;;;;;;23.58;12.20;;;;;;;23.57;84.96;97441.34;10288026;28;20061;-57
2022/08/25 07:21:50;;;;;;;22.58;12.18;;;;;;;23.82;82.56;97443.41;10291288;28;20137;-57
2022/08/25 07:26:50;;;;;;;20.75;11.48;;;;;;;24.24;82.32;97425.03;10290046;28;20065;-58
2022/08/25 07:31:49;;;;;;;26.85;11.95;;;;;;;24.51;78.37;97429.56;10290493;28;20112;-57
2022/08/25 07:36:48;;;;;;;22.50;9.00;;;;;;;23.79;70.74;97417.06;10290871;28;20536;-57
2022/08/25 07:41:47;;;;;;;15.55;7.05;;;;;;;23.78;70.71;97414.53;10290768;28;20442;-57
2022/08/25 07:46:47;;;;;;;20.60;7.10;;;;;;;23.60;70.18;97409.38;10286878;28;20730;-57
2022/08/25 07:51:46;;;;;;;22.52;8.18;;;;;;;23.64;69.27;97420.66;10290706;28;20069;-57
2022/08/25 07:56:45;;;;;;;20.33;7.05;;;;;;;23.96;68.76;97418.75;10288922;28;20068;-58
2022/08/25 08:01:44;;;;;;;22.17;7.60;;;;;;;23.93;66.59;97418.06;10293582;28;20058;-57
2022/08/25 08:06:43;;;;;;;22.98;7.50;;;;;;;24.06;67.13;97424.31;10296584;28;20053;-57
2022/08/25 08:11:43;;;;;;;22.80;7.63;;;;;;;24.05;66.68;97412.88;10297325;28;20482;-57
2022/08/25 08:16:42;;;;;;;17.60;6.35;;;;;;;24.04;66.73;97408.50;10296521;28;20065;-57
2022/08/25 08:21:41;;;;;;;25.17;7.43;;;;;;;24.08;62.65;97403.88;10294767;28;20096;-57
2022/08/25 08:26:40;;;;;;;19.80;7.18;;;;;;;24.10;61.56;97414.38;10296781;28;20121;-57
2022/08/25 08:31:39;;;;;;;20.45;6.82;;;;;;;24.25;61.31;97416.13;10296820;28;20070;-58
2022/08/25 08:36:38;;;;;;;32.33;6.30;;;;;;;24.51;54.77;97400.38;10296511;28;20032;-58
2022/08/25 08:42:15;;;;;;;28.67;6.35;;;;;;;24.63;52.57;97410.22;10296465;28;20072;-58
2022/08/25 08:47:20;;;;;;;27.23;6.43;;;;;;;24.67;52.49;97409.06;10296833;28;20077;-58
2022/08/25 08:52:31;;;;;;;25.98;5.85;;;;;;;24.99;52.44;97409.69;10293878;28;20090;-58
2022/08/25 08:57:36;;;;;;;32.75;7.07;;;;;;;25.17;53.05;97391.69;10294361;28;20080;-58
2022/08/25 09:03:05;;;;;;;27.50;7.60;;;;;;;25.53;51.97;97392.88;10295607;28;20440;-58
2022/08/25 09:08:09;;;;;;;23.17;6.38;;;;;;;25.88;52.96;97384.31;10316713;28;20077;-58
2022/08/25 09:13:23;;;;;;;33.47;6.03;;;;;;;25.76;53.13;97370.03;10294275;28;20065;-58
2022/08/25 09:18:32;;;;;;;24.48;6.57;;;;;;;25.88;53.29;97389.66;10294539;28;20058;-58
2022/08/25 09:23:55;;;;;;;23.60;6.53;;;;;;;25.92;52.30;97383.13;10284452;28;20822;-58
2022/08/25 09:29:19;;;;;;;22.15;5.78;;;;;;;25.71;52.57;97373.06;10288848;28;20065;-58
2022/08/25 09:34:19;;;;;;;20.95;5.78;;;;;;;25.61;52.31;97369.31;10289640;28;20535;-58
2022/08/25 09:39:19;;;;;;;25.02;5.72;;;;;;;25.68;51.57;97359.94;10289705;28;20073;-58
2022/08/25 09:44:25;;;;;;;28.15;5.43;;;;;;;25.67;51.40;97360.91;10289004;28;20065;-58
2022/08/25 09:49:36;;;;;;;28.67;6.05;;;;;;;25.79;50.00;97351.25;10288539;28;20137;-58
2022/08/25 09:54:37;;;;;;;22.30;5.22;;;;;;;25.97;49.17;97351.75;10286973;28;20523;-58
2022/08/25 09:59:37;;;;;;;27.10;5.70;;;;;;;26.22;49.37;97345.59;10288047;28;20472;-58
2022/08/25 10:04:38;;;;;;;20.30;5.70;;;;;;;26.14;48.38;97351.44;10288574;28;20061;-58
2022/08/25 10:09:40;;;;;;;24.58;5.97;;;;;;;26.27;48.16;97334.63;10288243;28;20065;-58
2022/08/25 10:14:40;;;;;;;25.63;5.53;;;;;;;26.53;48.17;97340.72;10286968;28;20065;-58
2022/08/25 10:19:40;;;;;;;22.13;5.80;;;;;;;26.44;46.62;97336.94;10288626;28;20092;-58
2022/08/25 10:24:40;;;;;;;30.80;5.55;;;;;;;26.51;47.84;97319.59;10281963;28;20069;-58
2022/08/25 10:29:38;;;;;;;28.27;5.40;;;;;;;26.68;48.01;97325.47;10289722;28;20080;-57
2022/08/25 10:34:47;;;;;;;24.27;5.10;;;;;;;26.73;46.36;97315.34;10292854;28;20056;-57
2022/08/25 10:40:08;;;;;;;29.27;5.57;;;;;;;26.82;46.74;97322.66;10285659;28;20538;-58
2022/08/25 10:45:41;;;;;;;18.83;5.55;;;;;;;26.79;45.13;97328.19;10269642;28;20093;-59
2022/08/25 10:51:04;;;;;;;25.45;5.57;;;;;;;26.41;46.10;97315.88;10251052;28;20081;-59
2022/08/25 10:56:07;;;;;;;24.05;5.78;;;;;;;26.40;45.98;97308.84;10289819;28;20472;-59
2022/08/25 11:01:32;;;;;;;16.52;4.82;;;;;;;26.56;44.92;97301.47;10286529;28;20483;-59
2022/08/25 11:06:37;;;;;;;13.32;4.97;;;;;;;26.51;44.97;97300.06;10287735;28;20080;-59
2022/08/25 11:11:48;;;;;;;20.08;5.13;;;;;;;26.84;45.27;97302.13;10261403;28;20060;-59
2022/08/25 11:17:00;;;;;;;13.65;5.47;;;;;;;27.43;45.10;97303.88;10250434;28;20057;-56
2022/08/25 11:22:09;;;;;;;16.25;4.88;;;;;;;27.64;43.82;97301.41;10249812;28;20062;-57
2022/08/25 11:27:11;;;;;;;;;;;;;;;27.66;43.28;97298.63;10273112;28;20093;-57
2022/08/25 11:32:10;;;;;;;18.35;5.57;;;;;;;27.54;43.87;97285.28;10285181;28;20399;-57
2022/08/25 11:37:24;;;;;;;21.23;4.60;;;;;;;27.23;43.58;97281.41;10285223;28;20056;-57
2022/08/25 11:43:00;;;;;;;14.68;4.45;;;;;;;27.21;43.85;97278.03;10287755;28;20504;-58
2022/08/25 11:48:07;;;;;;;15.68;4.70;;;;;;;27.36;42.94;97266.22;10286943;28;20069;-57
2022/08/25 11:53:10;;;;;;;;;;;;;;;27.61;42.97;97273.19;10287105;28;20073;-57
2022/08/25 11:58:33;;;;;;;19.77;5.20;;;;;;;27.59;43.54;97285.78;10288303;28;19986;-57
2022/08/25 12:03:34;;;;;;;17.17;5.57;;;;;;;27.42;42.86;97273.75;10288158;28;20069;-57
2022/08/25 12:08:53;;;;;;;16.83;4.63;;;;;;;27.59;43.54;97276.94;10286297;28;20560;-57
2022/08/25 12:14:16;;;;;;;20.75;4.43;;;;;;;27.58;43.04;97281.41;10287354;28;20069;-57
2022/08/25 12:19:39;;;;;;;18.38;4.65;;;;;;;27.67;42.48;97281.66;10287689;28;20068;-57
2022/08/25 12:25:17;;;;;;;18.00;4.85;;;;;;;27.56;42.06;97278.00;10287647;28;20073;-57
2022/08/25 12:30:26;;;;;;;21.63;5.78;;;;;;;27.33;42.99;97287.75;10295720;28;20132;-59
2022/08/25 12:35:28;;;;;;;19.85;5.95;;;;;;;27.09;42.53;97276.31;10269372;28;20104;-57
2022/08/25 12:40:47;;;;;;;14.43;4.68;;;;;;;27.16;42.95;97291.69;10285046;28;20113;-57
2022/08/25 12:45:49;;;;;;;19.65;5.55;;;;;;;27.29;43.42;97285.44;10283553;28;20073;-57
2022/08/25 12:50:56;;;;;;;17.92;5.47;;;;;;;27.42;42.28;97286.19;10276465;28;20076;-57
2022/08/25 12:56:15;;;;;;;16.13;4.60;;;;;;;27.43;41.87;97285.25;10295198;28;20057;-57
2022/08/25 13:01:23;;;;;;;20.10;5.30;;;;;;;27.53;42.13;97285.41;10294801;28;20068;-58
2022/08/25 13:06:47;;;;;;;14.40;4.80;;;;;;;27.32;42.37;97267.41;10293843;28;20069;-58
2022/08/25 13:11:57;;;;;;;24.10;5.00;;;;;;;27.30;41.47;97287.97;10293685;28;20452;-58
2022/08/25 13:16:58;;;;;;;19.25;4.53;;;;;;;27.09;41.49;97281.63;10294356;28;20499;-58
2022/08/25 13:22:00;;;;;;;26.02;6.03;;;;;;;27.21;41.56;97283.34;10293121;28;20057;-58
2022/08/25 13:27:06;;;;;;;17.80;4.50;;;;;;;26.84;41.10;97290.59;10293125;28;20072;-57
2022/08/25 13:32:11;;;;;;;14.85;4.32;;;;;;;26.90;40.12;97288.34;10293717;28;20516;-57
2022/08/25 13:37:28;;;;;;;17.40;4.25;;;;;;;26.95;40.46;97285.31;10292394;28;20061;-57
2022/08/25 13:42:27;;;;;;;18.63;4.90;;;;;;;26.93;40.34;97271.28;10291697;28;20468;-58
2022/08/25 13:47:38;;;;;;;19.85;4.78;;;;;;;26.79;40.21;97282.91;10292947;28;20081;-58
2022/08/25 13:52:38;;;;;;;20.35;5.32;;;;;;;26.82;40.20;97282.72;10291994;28;20515;-58
2022/08/25 13:57:43;;;;;;;17.50;4.43;;;;;;;26.83;40.51;97278.22;10291621;28;20065;-58
2022/08/25 14:02:42;;;;;;;22.23;4.80;;;;;;;26.87;40.61;97280.59;10291999;28;20061;-57
2022/08/25 14:07:52;;;;;;;28.15;5.50;;;;;;;27.01;39.72;97278.72;10291452;28;20037;-57
2022/08/25 14:13:07;;;;;;;25.98;4.72;;;;;;;27.13;39.41;97281.28;10291827;28;20069;-57
2022/08/25 14:18:17;;;;;;;20.90;4.68;;;;;;;27.34;39.10;97268.13;10291566;28;20085;-57
2022/08/25 14:23:24;;;;;;;25.75;5.13;;;;;;;27.53;38.10;97269.41;10291234;28;20563;-57
2022/08/25 14:28:27;;;;;;;20.02;5.45;;;;;;;27.62;39.28;97261.53;10290717;28;20084;-57
2022/08/25 14:33:33;;;;;;;19.90;5.22;;;;;;;27.75;39.48;97257.91;10291231;28;20081;-58
2022/08/25 14:38:34;;;;;;;17.60;5.00;;;;;;;27.75;40.23;97266.78;10290946;28;20064;-58
2022/08/25 14:43:33;;;;;;;26.63;5.60;;;;;;;27.79;40.37;97265.53;10289972;28;20512;-57
2022/08/25 14:48:39;;;;;;;25.10;5.40;;;;;;;27.57;41.02;97250.41;10289973;28;20081;-57
2022/08/25 14:53:39;;;;;;;28.85;5.40;;;;;;;27.17;41.85;97244.63;10290189;28;20057;-57
2022/08/25 14:58:39;;;;;;;20.50;4.93;;;;;;;26.90;42.25;97240.41;10289423;28;20799;-57
2022/08/25 15:03:42;;;;;;;19.98;5.55;;;;;;;26.67;43.08;97236.78;10289200;28;20523;-58
2022/08/25 15:14:00;;;;;;;20.98;4.95;;;;;;;27.06;42.60;97240.09;10289315;28;20088;-58
2022/08/25 15:19:00;;;;;;;19.90;4.68;;;;;;;27.06;42.31;97242.75;10294987;28;20080;-57
2022/08/25 15:23:59;;;;;;;12.95;5.20;;;;;;;27.16;43.07;97248.22;10330238;28;20491;-57
2022/08/25 15:28:58;;;;;;;19.88;5.50;;;;;;;27.07;43.69;97241.78;10329368;28;20400;-57
2022/08/25 15:33:58;;;;;;;20.90;5.28;;;;;;;26.97;43.91;97238.97;10328279;28;20069;-57
2022/08/25 15:38:57;;;;;;;19.85;4.93;;;;;;;26.85;44.14;97244.41;10316081;28;20512;-58
2022/08/25 15:43:58;;;;;;;21.63;5.35;;;;;;;26.72;44.55;97229.31;10320936;28;20084;-58
2022/08/25 15:48:58;;;;;;;22.80;5.43;;;;;;;26.58;44.57;97233.00;10326495;28;20084;-57
2022/08/25 15:53:57;;;;;;;15.63;4.43;;;;;;;26.64;44.20;97231.69;10326166;28;20573;-57
2022/08/25 15:58:56;;;;;;;23.35;6.28;;;;;;;26.62;44.28;97224.78;10327641;28;20786;-57
2022/08/25 16:03:56;;;;;;;17.40;6.15;;;;;;;26.69;45.44;97221.53;10325162;28;20041;-57
2022/08/25 16:08:55;;;;;;;18.33;5.13;;;;;;;26.70;46.80;97225.91;10325678;28;20080;-57
2022/08/25 16:13:55;;;;;;;16.35;5.30;;;;;;;26.65;47.12;97221.88;10326727;28;20087;-57
2022/08/25 16:18:55;;;;;;;22.23;5.70;;;;;;;26.55;47.64;97217.25;10328654;28;20072;-57
2022/08/25 16:23:57;;;;;;;17.50;5.32;;;;;;;26.32;47.06;97215.44;10334656;28;20076;-57
2022/08/25 16:28:56;;;;;;;25.13;6.20;;;;;;;26.15;47.46;97214.84;10336071;28;20148;-58
2022/08/25 16:33:55;;;;;;;23.92;6.43;;;;;;;26.11;48.81;97213.38;10335524;28;20112;-58
2022/08/25 16:38:56;;;;;;;16.17;5.60;;;;;;;26.01;49.46;97215.00;10335561;28;20076;-58
2022/08/25 16:43:57;;;;;;;24.80;5.65;;;;;;;25.88;50.08;97224.84;10336035;28;20587;-58
2022/08/25 16:49:00;;;;;;;20.05;6.15;;;;;;;25.70;50.29;97227.81;10335801;28;20156;-58
2022/08/25 16:59:16;;;;;;;19.33;5.78;;;;;;;25.30;51.48;97222.63;10334200;28;20064;-58
2022/08/25 17:04:15;;;;;;;18.95;5.78;;;;;;;25.06;52.01;97224.31;10335053;28;20037;-58
2022/08/25 17:09:14;;;;;;;23.65;6.18;;;;;;;24.81;53.42;97225.09;10333898;28;20033;-58
2022/08/25 17:14:16;;;;;;;24.45;5.90;;;;;;;24.58;54.02;97240.72;10334412;28;20080;-58
2022/08/25 17:19:15;;;;;;;19.10;6.28;;;;;;;24.35;55.62;97241.38;10334077;28;20091;-58
2022/08/25 17:24:15;;;;;;;17.13;5.50;;;;;;;24.08;56.79;97246.66;10333815;28;20087;-58
2022/08/25 17:29:16;;;;;;;19.42;5.80;;;;;;;23.81;58.49;97244.78;10334161;28;20115;-58
2022/08/25 17:34:15;;;;;;;22.60;6.07;;;;;;;23.57;59.50;97255.09;10333126;28;20085;-58
2022/08/25 17:39:17;;;;;;;17.85;6.05;;;;;;;23.32;60.74;97250.41;10333544;28;20065;-57
2022/08/25 17:44:16;;;;;;;17.48;5.43;;;;;;;23.10;61.40;97259.66;10332667;28;20471;-58
2022/08/25 17:49:16;;;;;;;19.10;5.80;;;;;;;22.74;62.28;97244.13;10331847;28;20107;-57
2022/08/25 17:54:15;;;;;;;23.35;5.78;;;;;;;22.68;62.94;97266.47;10333005;28;20079;-58
2022/08/25 17:59:15;;;;;;;15.23;6.13;;;;;;;22.51;63.09;97269.25;10332890;28;20073;-57
2022/08/25 18:04:14;;;;;;;20.50;5.57;;;;;;;22.38;63.69;97261.16;10332061;28;20081;-57
2022/08/25 18:09:15;;;;;;;23.75;6.80;;;;;;;22.27;64.35;97277.63;10332056;28;20051;-57
2022/08/25 18:14:15;;;;;;;23.63;6.10;;;;;;;22.14;64.74;97274.81;10331798;28;20581;-57
2022/08/25 18:19:15;;;;;;;21.60;6.07;;;;;;;22.04;65.78;97278.03;10331516;28;20077;-57
2022/08/25 18:24:15;;;;;;;19.60;6.47;;;;;;;21.88;66.22;97267.44;10331844;28;20080;-57
2022/08/25 18:29:15;;;;;;;26.38;7.22;;;;;;;21.75;66.67;97273.34;10331956;28;20494;-57
2022/08/25 18:34:14;;;;;;;23.98;6.60;;;;;;;21.65;67.66;97285.34;10331584;28;20339;-57
2022/08/25 18:44:31;;;;;;;17.27;6.70;;;;;;;21.35;69.59;97279.91;10330341;28;20539;-57
2022/08/25 18:49:30;;;;;;;24.42;7.25;;;;;;;21.25;70.21;97286.59;10331307;28;20084;-57
2022/08/25 18:54:29;;;;;;;21.73;7.25;;;;;;;21.17;70.70;97281.66;10329728;28;20105;-57
2022/08/25 18:59:28;;;;;;;16.83;7.25;;;;;;;21.11;71.07;97290.75;10330110;28;20037;-58
2022/08/25 19:04:27;;;;;;;17.60;5.97;;;;;;;21.07;71.52;97286.56;10330833;28;20068;-57
2022/08/25 19:09:26;;;;;;;17.50;6.25;;;;;;;20.97;71.71;97279.22;10330056;28;20083;-58
2022/08/25 19:14:26;;;;;;;17.73;6.78;;;;;;;20.97;71.71;97287.13;10329317;28;20069;-57
2022/08/25 19:19:25;;;;;;;19.55;6.35;;;;;;;20.90;71.98;97284.78;10330829;28;20074;-57
2022/08/25 19:24:24;;;;;;;26.17;6.57;;;;;;;20.88;72.25;97281.34;10329625;28;20499;-57
2022/08/25 19:29:23;;;;;;;21.40;6.72;;;;;;;20.86;72.48;97285.00;10328926;28;20069;-57
2022/08/25 19:34:27;;;;;;;18.13;6.10;;;;;;;20.83;72.50;97287.81;10330446;28;20080;-57
2022/08/25 19:39:27;;;;;;;18.70;6.38;;;;;;;20.82;73.09;97273.78;10330627;28;20073;-59
2022/08/25 19:44:26;;;;;;;20.55;7.53;;;;;;;20.71;73.86;97284.00;10369208;28;20084;-57
2022/08/25 19:49:29;;;;;;;23.83;7.97;;;;;;;20.53;76.33;97279.63;10370345;28;20080;-57
2022/08/25 19:54:32;;;;;;;21.52;7.88;;;;;;;20.39;77.82;97288.16;10340434;28;20108;-57
2022/08/25 19:59:34;;;;;;;21.23;7.75;;;;;;;20.32;78.39;97292.00;10327940;28;20064;-56
2022/08/25 20:04:33;;;;;;;24.98;7.95;;;;;;;20.29;78.56;97283.31;10329700;28;20092;-56
2022/08/25 20:09:32;;;;;;;19.00;7.68;;;;;;;20.20;80.17;97296.94;10328381;28;20077;-59
2022/08/25 20:14:32;;;;;;;21.27;8.23;;;;;;;20.12;80.48;97293.81;10327968;28;20044;-56
2022/08/25 20:19:31;;;;;;;22.27;8.32;;;;;;;20.05;80.54;97287.13;10328910;28;20092;-56
2022/08/25 20:24:49;;;;;;;24.48;8.02;;;;;;;20.06;80.37;97291.47;10327994;28;20029;-56
2022/08/25 20:29:49;;;;;;;19.65;8.75;;;;;;;20.04;80.56;97293.31;10327699;28;20073;-59
2022/08/25 20:34:49;;;;;;;20.38;7.63;;;;;;;19.97;81.57;97290.09;10328786;28;20072;-56
2022/08/25 20:39:48;;;;;;;20.55;7.82;;;;;;;19.91;81.83;97287.78;10327383;28;20483;-56
2022/08/25 20:44:47;;;;;;;19.67;8.00;;;;;;;19.82;81.78;97286.41;10328111;28;20095;-56
2022/08/25 20:49:47;;;;;;;19.33;7.47;;;;;;;19.75;82.25;97284.97;10331334;28;20073;-56
2022/08/25 20:54:46;;;;;;;20.60;7.47;;;;;;;19.69;82.37;97292.28;10330568;28;20077;-58
2022/08/25 20:59:45;;;;;;;19.95;7.30;;;;;;;19.52;83.53;97301.75;10331276;28;20076;-58
2022/08/25 21:04:44;;;;;;;17.13;6.78;;;;;;;19.47;84.17;97310.78;10331186;28;20107;-58
2022/08/25 21:09:44;;;;;;;21.63;7.47;;;;;;;19.35;84.22;97305.16;10334108;28;20041;-56
2022/08/25 21:14:43;;;;;;;18.63;7.38;;;;;;;19.29;84.62;97310.66;10337341;28;20060;-58
2022/08/25 21:19:42;;;;;;;22.13;8.20;;;;;;;19.20;85.04;97311.91;10338123;28;20072;-58
2022/08/25 21:24:41;;;;;;;19.65;8.02;;;;;;;19.10;85.95;97309.75;10337366;28;20029;-56
2022/08/25 21:29:40;;;;;;;22.05;9.57;;;;;;;19.04;86.54;97308.22;10337008;28;20072;-58
2022/08/25 21:34:39;;;;;;;21.90;8.85;;;;;;;18.97;87.01;97307.63;10337493;28;20037;-56
2022/08/25 21:39:38;;;;;;;20.35;9.52;;;;;;;18.91;87.62;97310.50;10336274;28;20505;-56
2022/08/25 21:44:37;;;;;;;24.33;8.77;;;;;;;18.84;87.86;97316.94;10336070;28;20056;-56
2022/08/25 21:49:36;;;;;;;24.63;8.63;;;;;;;18.78;88.49;97310.19;10333730;28;20123;-56
2022/08/25 21:54:36;;;;;;;16.92;8.15;;;;;;;18.63;89.86;97304.66;10332435;28;20068;-56
2022/08/25 21:59:39;;;;;;;23.48;9.48;;;;;;;18.53;90.82;97307.66;10332977;28;20069;-56
2022/08/25 22:04:39;;;;;;;20.65;8.38;;;;;;;18.38;91.53;97303.00;10332908;28;20084;-56
2022/08/25 22:09:39;;;;;;;22.25;9.63;;;;;;;18.40;91.30;97309.91;10332058;28;20124;-56
2022/08/25 22:14:39;;;;;;;20.58;9.45;;;;;;;18.41;91.41;97316.03;10329092;28;20125;-56
2022/08/25 22:19:38;;;;;;;17.73;8.45;;;;;;;18.39;91.35;97313.44;10330642;28;20077;-56
2022/08/25 22:24:37;;;;;;;21.67;8.88;;;;;;;18.38;91.53;97310.88;10330332;28;20038;-56
2022/08/25 22:29:36;;;;;;;25.17;10.18;;;;;;;18.34;91.75;97293.53;10331893;28;20073;-56
2022/08/25 22:34:35;;;;;;;20.58;9.25;;;;;;;18.30;91.94;97298.06;10331287;28;20579;-56
2022/08/25 22:39:34;;;;;;;18.77;9.65;;;;;;;18.26;92.12;97291.19;10331255;28;20503;-56
2022/08/25 22:44:37;;;;;;;24.15;10.35;;;;;;;18.22;92.35;97284.34;10331337;28;20488;-58
2022/08/25 22:49:38;;;;;;;20.83;9.45;;;;;;;18.19;92.55;97274.81;10330533;28;20088;-56
2022/08/25 22:54:37;;;;;;;24.27;9.63;;;;;;;18.15;92.55;97275.00;10330738;28;20080;-56
2022/08/25 22:59:36;;;;;;;24.25;9.30;;;;;;;18.14;92.56;97282.03;10330520;28;20064;-56
2022/08/25 23:04:37;;;;;;;22.30;9.27;;;;;;;18.12;92.41;97272.50;10330094;28;20084;-56
2022/08/25 23:09:36;;;;;;;29.70;10.10;;;;;;;18.09;92.61;97276.09;10330133;28;20100;-56
2022/08/25 23:14:37;;;;;;;24.02;10.35;;;;;;;18.06;92.71;97268.34;10329569;28;20021;-56
2022/08/25 23:19:36;;;;;;;20.25;10.02;;;;;;;18.03;92.68;97271.09;10329388;28;20065;-56
2022/08/25 23:24:37;;;;;;;20.27;10.40;;;;;;;17.97;93.22;97263.47;10329960;28;20029;-58
2022/08/25 23:29:38;;;;;;;27.05;11.20;;;;;;;17.95;93.52;97266.13;10329019;28;20478;-56